sensor_id;sensor_type;location;lat;lon;timestamp;pressure;altitude;pressure_sealevel;temperature;humidity
46638;BME280;32365;46.938;7.390;2023-01-10T07:16:19;95938.28;;;1.37;100.00
46638;BME280;32365;46.938;7.390;2023-01-10T07:18:46;95950.22;;;1.36;100.00
46638;BME280;32365;46.938;7.390;2023-01-10T07:21:12;95947.34;;;1.31;100.00
46638;BME280;32365;46.938;7.390;2023-01-10T07:23:40;95948.78;;;1.26;100.00
46638;BME280;32365;46.938;7.390;2023-01-10T07:26:08;95940.66;;;1.30;100.00
46638;BME280;32365;46.938;7.390;2023-01-10T07:28:35;95941.91;;;1.34;100.00
46638;BME280;32365;46.938;7.390;2023-01-10T07:31:02;95953.06;;;1.33;100.00
46638;BME280;32365;46.938;7.390;2023-01-10T07:33:30;95955.59;;;1.25;100.00
46638;BME280;32365;46.938;7.390;2023-01-10T07:35:58;95953.03;;;1.17;100.00
46638;BME280;32365;46.938;7.390;2023-01-10T07:38:25;95957.84;;;1.28;100.00
46638;BME280;32365;46.938;7.390;2023-01-10T07:40:51;95966.63;;;1.26;100.00
46638;BME280;32365;46.938;7.390;2023-01-10T07:43:17;95968.19;;;1.18;100.00
46638;BME280;32365;46.938;7.390;2023-01-10T07:45:44;95963.75;;;1.29;100.00
46638;BME280;32365;46.938;7.390;2023-01-10T07:48:10;95966.34;;;1.37;100.00
46638;BME280;32365;46.938;7.390;2023-01-10T07:50:38;95976.66;;;1.27;100.00
46638;BME280;32365;46.938;7.390;2023-01-10T07:53:05;95978.91;;;1.30;100.00
46638;BME280;32365;46.938;7.390;2023-01-10T07:55:32;95978.31;;;1.45;100.00
46638;BME280;32365;46.938;7.390;2023-01-10T07:58:00;95991.94;;;1.62;100.00
46638;BME280;32365;46.938;7.390;2023-01-10T08:00:26;95991.25;;;1.51;100.00
46638;BME280;32365;46.938;7.390;2023-01-10T08:02:53;95993.19;;;1.66;100.00
46638;BME280;32365;46.938;7.390;2023-01-10T08:05:19;95999.25;;;1.65;100.00
46638;BME280;32365;46.938;7.390;2023-01-10T08:07:47;96005.97;;;1.66;100.00
46638;BME280;32365;46.938;7.390;2023-01-10T08:10:14;96006.63;;;1.76;100.00
46638;BME280;32365;46.938;7.390;2023-01-10T08:12:40;96014.09;;;1.69;100.00
46638;BME280;32365;46.938;7.390;2023-01-10T08:15:07;96011.88;;;1.75;100.00
46638;BME280;32365;46.938;7.390;2023-01-10T08:17:34;96020.63;;;1.64;100.00
46638;BME280;32365;46.938;7.390;2023-01-10T08:20:00;96015.03;;;1.68;100.00
46638;BME280;32365;46.938;7.390;2023-01-10T08:22:27;96015.75;;;1.79;100.00
46638;BME280;32365;46.938;7.390;2023-01-10T08:24:55;96012.09;;;1.98;100.00
46638;BME280;32365;46.938;7.390;2023-01-10T08:27:21;96012.41;;;2.03;100.00
46638;BME280;32365;46.938;7.390;2023-01-10T08:29:48;96014.66;;;1.98;100.00
46638;BME280;32365;46.938;7.390;2023-01-10T08:32:14;96028.25;;;2.15;100.00
46638;BME280;32365;46.938;7.390;2023-01-10T08:34:40;96026.63;;;2.30;100.00
46638;BME280;32365;46.938;7.390;2023-01-10T08:37:09;96036.38;;;2.35;100.00
46638;BME280;32365;46.938;7.390;2023-01-10T08:39:36;96018.19;;;2.38;100.00
46638;BME280;32365;46.938;7.390;2023-01-10T08:42:04;96029.34;;;2.37;100.00
46638;BME280;32365;46.938;7.390;2023-01-10T08:44:31;96039.25;;;2.49;100.00
46638;BME280;32365;46.938;7.390;2023-01-10T08:46:57;96029.53;;;2.52;100.00
46638;BME280;32365;46.938;7.390;2023-01-10T08:49:23;96031.59;;;2.57;100.00
46638;BME280;32365;46.938;7.390;2023-01-10T08:51:50;96025.47;;;2.83;100.00
46638;BME280;32365;46.938;7.390;2023-01-10T08:54:16;96029.81;;;2.74;100.00
46638;BME280;32365;46.938;7.390;2023-01-10T08:56:42;96031.72;;;2.88;100.00
46638;BME280;32365;46.938;7.390;2023-01-10T08:59:10;96031.78;;;3.20;100.00
46638;BME280;32365;46.938;7.390;2023-01-10T09:01:37;96034.66;;;3.25;100.00
46638;BME280;32365;46.938;7.390;2023-01-10T09:04:03;96031.00;;;3.19;100.00
46638;BME280;32365;46.938;7.390;2023-01-10T09:06:30;96042.03;;;3.28;100.00
46638;BME280;32365;46.938;7.390;2023-01-10T09:08:56;96038.72;;;3.51;98.98
46638;BME280;32365;46.938;7.390;2023-01-10T09:11:23;96043.69;;;3.84;96.82
46638;BME280;32365;46.938;7.390;2023-01-10T09:13:49;96045.88;;;3.95;97.25
46638;BME280;32365;46.938;7.390;2023-01-10T09:16:17;96045.53;;;4.22;94.94
46638;BME280;32365;46.938;7.390;2023-01-10T09:18:44;96053.97;;;5.37;89.52
46638;BME280;32365;46.938;7.390;2023-01-10T09:21:12;96057.06;;;5.47;85.36
46638;BME280;32365;46.938;7.390;2023-01-10T09:23:39;96061.44;;;5.17;90.01
46638;BME280;32365;46.938;7.390;2023-01-10T09:26:07;96063.13;;;5.91;84.90
46638;BME280;32365;46.938;7.390;2023-01-10T09:28:34;96059.63;;;7.43;77.05
46638;BME280;32365;46.938;7.390;2023-01-10T09:31:00;96053.25;;;7.74;78.56
46638;BME280;32365;46.938;7.390;2023-01-10T09:33:29;96063.81;;;7.99;75.91
46638;BME280;32365;46.938;7.390;2023-01-10T09:35:56;96067.34;;;8.60;74.04
46638;BME280;32365;46.938;7.390;2023-01-10T09:38:23;96075.69;;;8.82;71.77
46638;BME280;32365;46.938;7.390;2023-01-10T09:40:53;96082.16;;;8.38;76.87
46638;BME280;32365;46.938;7.390;2023-01-10T09:43:25;96083.72;;;9.60;66.19
46638;BME280;32365;46.938;7.390;2023-01-10T09:45:57;96080.78;;;10.01;64.05
46638;BME280;32365;46.938;7.390;2023-01-10T09:48:28;96087.50;;;10.48;59.54
46638;BME280;32365;46.938;7.390;2023-01-10T09:51:03;96091.69;;;9.58;62.60
46638;BME280;32365;46.938;7.390;2023-01-10T09:53:35;96085.75;;;8.43;66.51
46638;BME280;32365;46.938;7.390;2023-01-10T09:56:05;96085.34;;;9.47;65.61
46638;BME280;32365;46.938;7.390;2023-01-10T09:58:33;96091.06;;;10.86;59.52
46638;BME280;32365;46.938;7.390;2023-01-10T10:01:03;96087.22;;;9.85;59.59
46638;BME280;32365;46.938;7.390;2023-01-10T10:03:31;96078.66;;;8.59;64.40
46638;BME280;32365;46.938;7.390;2023-01-10T10:06:02;96081.22;;;8.52;63.52
46638;BME280;32365;46.938;7.390;2023-01-10T10:08:29;96077.34;;;7.59;65.99
46638;BME280;32365;46.938;7.390;2023-01-10T10:11:01;96076.28;;;8.77;64.69
46638;BME280;32365;46.938;7.390;2023-01-10T10:13:34;96074.41;;;7.62;65.21
46638;BME280;32365;46.938;7.390;2023-01-10T10:16:03;96080.44;;;8.78;62.97
46638;BME280;32365;46.938;7.390;2023-01-10T10:18:32;96082.78;;;10.45;55.65
46638;BME280;32365;46.938;7.390;2023-01-10T10:21:06;96079.22;;;12.81;49.07
46638;BME280;32365;46.938;7.390;2023-01-10T10:23:40;96084.13;;;14.30;45.21
46638;BME280;32365;46.938;7.390;2023-01-10T10:26:11;96079.28;;;13.93;46.21
46638;BME280;32365;46.938;7.390;2023-01-10T10:28:44;96076.69;;;14.39;45.37
46638;BME280;32365;46.938;7.390;2023-01-10T10:31:17;96086.34;;;14.10;45.31
46638;BME280;32365;46.938;7.390;2023-01-10T10:33:53;96075.28;;;14.77;45.10
46638;BME280;32365;46.938;7.390;2023-01-10T10:36:26;96086.06;;;15.20;40.11
46638;BME280;32365;46.938;7.390;2023-01-10T10:38:54;96077.22;;;14.24;43.59
46638;BME280;32365;46.938;7.390;2023-01-10T10:41:26;96081.63;;;13.30;42.98
46638;BME280;32365;46.938;7.390;2023-01-10T10:43:54;96083.16;;;13.79;43.66
46638;BME280;32365;46.938;7.390;2023-01-10T10:46:27;96077.69;;;14.21;44.68
46638;BME280;32365;46.938;7.390;2023-01-10T10:48:55;96072.47;;;14.21;43.19
46638;BME280;32365;46.938;7.390;2023-01-10T10:51:25;96082.16;;;14.38;42.37
46638;BME280;32365;46.938;7.390;2023-01-10T10:53:53;96084.69;;;11.07;48.59
46638;BME280;32365;46.938;7.390;2023-01-10T10:56:20;96081.00;;;9.93;53.27
46638;BME280;32365;46.938;7.390;2023-01-10T10:58:48;96081.41;;;10.68;53.29
46638;BME280;32365;46.938;7.390;2023-01-10T11:01:17;96079.41;;;12.56;45.59
46638;BME280;32365;46.938;7.390;2023-01-10T11:03:45;96076.75;;;12.74;45.20
46638;BME280;32365;46.938;7.390;2023-01-10T11:06:12;96081.63;;;13.30;42.27
46638;BME280;32365;46.938;7.390;2023-01-10T11:08:42;96072.28;;;12.63;45.08
46638;BME280;32365;46.938;7.390;2023-01-10T11:11:13;96072.59;;;14.26;43.15
46638;BME280;32365;46.938;7.390;2023-01-10T11:13:42;96067.53;;;14.83;38.38
46638;BME280;32365;46.938;7.390;2023-01-10T11:16:21;96076.44;;;15.82;39.64
46638;BME280;32365;46.938;7.390;2023-01-10T11:18:52;96074.22;;;13.75;40.22
46638;BME280;32365;46.938;7.390;2023-01-10T11:21:33;96077.28;;;12.65;43.67
46638;BME280;32365;46.938;7.390;2023-01-10T11:24:02;96071.00;;;13.08;41.37
46638;BME280;32365;46.938;7.390;2023-01-10T11:26:29;96073.13;;;11.28;44.40
46638;BME280;32365;46.938;7.390;2023-01-10T11:29:03;96072.13;;;11.66;44.57
46638;BME280;32365;46.938;7.390;2023-01-10T11:31:30;96068.63;;;10.73;46.19
46638;BME280;32365;46.938;7.390;2023-01-10T11:33:57;96072.22;;;10.72;48.67
46638;BME280;32365;46.938;7.390;2023-01-10T11:36:24;96068.88;;;11.90;45.00
46638;BME280;32365;46.938;7.390;2023-01-10T11:38:57;96059.72;;;12.06;45.06
46638;BME280;32365;46.938;7.390;2023-01-10T11:41:26;96050.38;;;11.49;43.77
46638;BME280;32365;46.938;7.390;2023-01-10T11:43:59;96046.75;;;10.69;46.36
46638;BME280;32365;46.938;7.390;2023-01-10T11:46:41;96044.72;;;10.45;46.92
46638;BME280;32365;46.938;7.390;2023-01-10T11:49:09;96032.28;;;11.79;45.39
46638;BME280;32365;46.938;7.390;2023-01-10T11:51:39;96031.56;;;11.72;46.11
46638;BME280;32365;46.938;7.390;2023-01-10T11:54:10;96034.69;;;12.54;42.76
46638;BME280;32365;46.938;7.390;2023-01-10T11:56:38;96037.63;;;12.69;43.06
46638;BME280;32365;46.938;7.390;2023-01-10T11:59:06;96035.44;;;12.30;41.61
46638;BME280;32365;46.938;7.390;2023-01-10T12:01:37;96024.00;;;10.13;46.30
46638;BME280;32365;46.938;7.390;2023-01-10T12:04:05;96015.53;;;9.93;47.45
46638;BME280;32365;46.938;7.390;2023-01-10T12:06:31;96016.63;;;9.78;50.08
46638;BME280;32365;46.938;7.390;2023-01-10T12:08:58;96017.56;;;9.38;51.28
46638;BME280;32365;46.938;7.390;2023-01-10T12:11:26;96011.72;;;8.91;51.91
46638;BME280;32365;46.938;7.390;2023-01-10T12:13:55;96017.09;;;8.69;53.42
46638;BME280;32365;46.938;7.390;2023-01-10T12:16:23;96004.63;;;8.53;53.63
46638;BME280;32365;46.938;7.390;2023-01-10T12:18:50;96004.78;;;8.51;53.43
46638;BME280;32365;46.938;7.390;2023-01-10T12:21:18;95991.78;;;7.77;55.19
46638;BME280;32365;46.938;7.390;2023-01-10T12:23:46;95992.19;;;7.88;55.30
46638;BME280;32365;46.938;7.390;2023-01-10T12:26:14;95993.53;;;7.70;55.94
46638;BME280;32365;46.938;7.390;2023-01-10T12:28:41;95991.81;;;7.91;55.48
46638;BME280;32365;46.938;7.390;2023-01-10T12:31:13;95981.38;;;7.50;56.08
46638;BME280;32365;46.938;7.390;2023-01-10T12:33:41;95990.28;;;7.41;56.00
46638;BME280;32365;46.938;7.390;2023-01-10T12:36:11;95989.25;;;7.35;55.21
46638;BME280;32365;46.938;7.390;2023-01-10T12:38:41;95989.66;;;7.39;56.08
46638;BME280;32365;46.938;7.390;2023-01-10T12:41:43;95990.91;;;7.08;56.84
46638;BME280;32365;46.938;7.390;2023-01-10T12:44:30;95982.91;;;7.38;56.82
46638;BME280;32365;46.938;7.390;2023-01-10T12:47:00;95979.34;;;7.32;57.33
46638;BME280;32365;46.938;7.390;2023-01-10T12:49:28;95968.50;;;7.50;56.97
46638;BME280;32365;46.938;7.390;2023-01-10T12:51:57;95955.81;;;7.42;57.33
46638;BME280;32365;46.938;7.390;2023-01-10T12:54:25;95959.19;;;7.49;56.29
46638;BME280;32365;46.938;7.390;2023-01-10T12:56:52;95949.81;;;7.35;57.24
46638;BME280;32365;46.938;7.390;2023-01-10T12:59:19;95936.41;;;7.60;58.26
46638;BME280;32365;46.938;7.390;2023-01-10T13:01:49;95939.19;;;7.51;57.22
46638;BME280;32365;46.938;7.390;2023-01-10T13:04:19;95941.69;;;7.38;57.64
46638;BME280;32365;46.938;7.390;2023-01-10T13:06:47;95932.63;;;7.42;58.44
46638;BME280;32365;46.938;7.390;2023-01-10T13:09:15;95934.88;;;7.17;58.37
46638;BME280;32365;46.938;7.390;2023-01-10T13:11:44;95931.38;;;7.31;59.10
46638;BME280;32365;46.938;7.390;2023-01-10T13:14:13;95928.19;;;7.29;57.71
46638;BME280;32365;46.938;7.390;2023-01-10T13:16:44;95919.91;;;7.40;58.34
46638;BME280;32365;46.938;7.390;2023-01-10T13:19:23;95919.63;;;7.15;58.76
46638;BME280;32365;46.938;7.390;2023-01-10T13:21:54;95909.16;;;7.23;59.31
46638;BME280;32365;46.938;7.390;2023-01-10T13:24:36;95909.50;;;7.07;60.49
46638;BME280;32365;46.938;7.390;2023-01-10T13:27:03;95910.47;;;6.99;60.79
46638;BME280;32365;46.938;7.390;2023-01-10T13:29:30;95910.22;;;6.94;60.34
46638;BME280;32365;46.938;7.390;2023-01-10T13:32:11;95912.63;;;6.96;59.56
46638;BME280;32365;46.938;7.390;2023-01-10T13:34:42;95901.88;;;6.78;59.13
46638;BME280;32365;46.938;7.390;2023-01-10T13:37:09;95897.88;;;6.76;60.13
46638;BME280;32365;46.938;7.390;2023-01-10T13:39:37;95905.28;;;6.92;60.08
46638;BME280;32365;46.938;7.390;2023-01-10T13:45:19;95892.50;;;6.71;61.48
46638;BME280;32365;46.938;7.390;2023-01-10T13:48:02;95892.09;;;6.67;61.42
46638;BME280;32365;46.938;7.390;2023-01-10T13:56:26;95874.31;;;6.37;62.90
46638;BME280;32365;46.938;7.390;2023-01-10T13:58:53;95871.06;;;6.57;62.84
46638;BME280;32365;46.938;7.390;2023-01-10T14:01:37;95870.84;;;6.52;62.47
46638;BME280;32365;46.938;7.390;2023-01-10T14:04:21;95872.56;;;6.44;62.83
46638;BME280;32365;46.938;7.390;2023-01-10T14:06:53;95882.03;;;6.37;63.85
46638;BME280;32365;46.938;7.390;2023-01-10T14:12:22;95880.72;;;6.48;62.76
46638;BME280;32365;46.938;7.390;2023-01-10T14:14:51;95882.78;;;6.31;63.04
46638;BME280;32365;46.938;7.390;2023-01-10T14:17:20;95888.19;;;6.14;63.52
46638;BME280;32365;46.938;7.390;2023-01-10T14:19:48;95888.84;;;6.52;62.81
46638;BME280;32365;46.938;7.390;2023-01-10T14:22:24;95885.03;;;6.12;62.32
46638;BME280;32365;46.938;7.390;2023-01-10T14:24:52;95894.22;;;6.28;63.40
46638;BME280;32365;46.938;7.390;2023-01-10T14:27:19;95897.13;;;6.47;62.08
46638;BME280;32365;46.938;7.390;2023-01-10T14:29:47;95891.59;;;6.22;62.30
46638;BME280;32365;46.938;7.390;2023-01-10T14:32:17;95889.25;;;5.98;63.57
46638;BME280;32365;46.938;7.390;2023-01-10T14:34:44;95891.13;;;5.90;63.41
46638;BME280;32365;46.938;7.390;2023-01-10T14:37:14;95883.56;;;5.81;64.18
46638;BME280;32365;46.938;7.390;2023-01-10T14:39:43;95894.16;;;5.72;64.11
46638;BME280;32365;46.938;7.390;2023-01-10T14:42:14;95892.50;;;5.64;64.08
46638;BME280;32365;46.938;7.390;2023-01-10T14:44:43;95886.03;;;5.46;65.05
46638;BME280;32365;46.938;7.390;2023-01-10T14:47:26;95898.44;;;5.64;65.08
46638;BME280;32365;46.938;7.390;2023-01-10T14:49:52;95893.09;;;5.44;65.51
46638;BME280;32365;46.938;7.390;2023-01-10T14:52:21;95897.91;;;5.32;65.73
46638;BME280;32365;46.938;7.390;2023-01-10T14:54:52;95892.63;;;5.19;67.87
46638;BME280;32365;46.938;7.390;2023-01-10T14:57:20;95891.16;;;5.09;68.55
46638;BME280;32365;46.938;7.390;2023-01-10T14:59:47;95888.19;;;4.91;69.78
46638;BME280;32365;46.938;7.390;2023-01-10T15:02:15;95879.94;;;4.96;68.20
46638;BME280;32365;46.938;7.390;2023-01-10T15:04:48;95874.56;;;5.12;68.83
46638;BME280;32365;46.938;7.390;2023-01-10T15:07:16;95867.91;;;5.33;67.56
46638;BME280;32365;46.938;7.390;2023-01-10T15:09:47;95866.22;;;5.03;68.23
46638;BME280;32365;46.938;7.390;2023-01-10T15:12:13;95877.28;;;4.89;68.67
46638;BME280;32365;46.938;7.390;2023-01-10T15:14:41;95874.81;;;4.96;69.31
46638;BME280;32365;46.938;7.390;2023-01-10T15:17:10;95868.78;;;5.03;69.89
46638;BME280;32365;46.938;7.390;2023-01-10T15:19:41;95866.91;;;4.97;69.57
46638;BME280;32365;46.938;7.390;2023-01-10T15:22:16;95863.13;;;4.93;70.12
46638;BME280;32365;46.938;7.390;2023-01-10T15:24:43;95863.06;;;4.86;70.13
46638;BME280;32365;46.938;7.390;2023-01-10T15:27:21;95865.25;;;4.89;69.64
46638;BME280;32365;46.938;7.390;2023-01-10T15:29:48;95857.75;;;4.73;71.33
46638;BME280;32365;46.938;7.390;2023-01-10T15:32:17;95855.66;;;4.61;72.06
46638;BME280;32365;46.938;7.390;2023-01-10T15:34:46;95865.91;;;4.61;73.25
46638;BME280;32365;46.938;7.390;2023-01-10T15:37:14;95858.81;;;4.78;71.15
46638;BME280;32365;46.938;7.390;2023-01-10T15:39:46;95867.03;;;4.59;72.47
46638;BME280;32365;46.938;7.390;2023-01-10T15:42:13;95870.47;;;4.51;72.74
46638;BME280;32365;46.938;7.390;2023-01-10T15:44:39;95879.25;;;4.57;72.48
46638;BME280;32365;46.938;7.390;2023-01-10T15:49:51;95900.44;;;4.21;74.94
46638;BME280;32365;46.938;7.390;2023-01-10T15:52:20;95893.16;;;4.09;76.24
46638;BME280;32365;46.938;7.390;2023-01-10T15:54:48;95896.94;;;3.98;77.44
46638;BME280;32365;46.938;7.390;2023-01-10T15:57:22;95899.22;;;3.93;78.62
46638;BME280;32365;46.938;7.390;2023-01-10T15:59:49;95882.00;;;3.87;76.94
46638;BME280;32365;46.938;7.390;2023-01-10T16:02:21;95873.38;;;3.80;77.78
46638;BME280;32365;46.938;7.390;2023-01-10T16:04:48;95877.22;;;3.99;78.23
46638;BME280;32365;46.938;7.390;2023-01-10T16:07:18;95874.66;;;3.99;78.27
46638;BME280;32365;46.938;7.390;2023-01-10T16:09:49;95877.78;;;4.09;77.86
46638;BME280;32365;46.938;7.390;2023-01-10T16:12:23;95875.53;;;3.91;79.08
46638;BME280;32365;46.938;7.390;2023-01-10T16:15:12;95871.31;;;3.98;78.90
46638;BME280;32365;46.938;7.390;2023-01-10T16:17:41;95860.63;;;3.95;79.48
46638;BME280;32365;46.938;7.390;2023-01-10T16:20:11;95866.34;;;3.82;80.83
46638;BME280;32365;46.938;7.390;2023-01-10T16:22:37;95870.16;;;3.86;81.09
46638;BME280;32365;46.938;7.390;2023-01-10T16:25:05;95876.13;;;4.02;80.04
46638;BME280;32365;46.938;7.390;2023-01-10T16:27:32;95877.78;;;4.09;79.61
46638;BME280;32365;46.938;7.390;2023-01-10T16:29:59;95869.84;;;4.04;78.02
46638;BME280;32365;46.938;7.390;2023-01-10T16:32:25;95864.19;;;4.09;77.88
46638;BME280;32365;46.938;7.390;2023-01-10T16:34:51;95861.44;;;4.10;78.18
46638;BME280;32365;46.938;7.390;2023-01-10T16:37:18;95860.91;;;4.15;77.40
46638;BME280;32365;46.938;7.390;2023-01-10T16:39:44;95862.16;;;4.19;76.59
46638;BME280;32365;46.938;7.390;2023-01-10T16:42:12;95859.06;;;4.24;77.29
46638;BME280;32365;46.938;7.390;2023-01-10T16:44:56;95859.94;;;4.16;77.67
46638;BME280;32365;46.938;7.390;2023-01-10T16:47:22;95866.69;;;4.32;77.17
46638;BME280;32365;46.938;7.390;2023-01-10T16:49:49;95869.50;;;4.22;77.56
46638;BME280;32365;46.938;7.390;2023-01-10T16:52:15;95874.34;;;4.17;77.83
46638;BME280;32365;46.938;7.390;2023-01-10T16:54:41;95871.97;;;4.15;76.54
46638;BME280;32365;46.938;7.390;2023-01-10T16:57:08;95869.59;;;4.14;77.29
46638;BME280;32365;46.938;7.390;2023-01-10T16:59:35;95874.97;;;4.04;76.58
46638;BME280;32365;46.938;7.390;2023-01-10T17:02:02;95865.25;;;3.99;77.40
46638;BME280;32365;46.938;7.390;2023-01-10T17:04:28;95875.75;;;4.05;76.79
46638;BME280;32365;46.938;7.390;2023-01-10T17:06:56;95873.47;;;4.10;76.86
46638;BME280;32365;46.938;7.390;2023-01-10T17:09:24;95868.75;;;3.98;77.07
46638;BME280;32365;46.938;7.390;2023-01-10T17:11:52;95860.47;;;4.11;76.56
46638;BME280;32365;46.938;7.390;2023-01-10T17:14:22;95862.88;;;4.13;77.23
46638;BME280;32365;46.938;7.390;2023-01-10T17:16:49;95867.53;;;4.09;77.57
46638;BME280;32365;46.938;7.390;2023-01-10T17:19:16;95865.69;;;4.18;78.20
46638;BME280;32365;46.938;7.390;2023-01-10T17:21:42;95867.03;;;4.29;77.39
46638;BME280;32365;46.938;7.390;2023-01-10T17:24:09;95864.72;;;4.34;77.03
46638;BME280;32365;46.938;7.390;2023-01-10T17:26:36;95873.22;;;4.35;76.99
46638;BME280;32365;46.938;7.390;2023-01-10T17:29:03;95875.00;;;4.34;77.13
46638;BME280;32365;46.938;7.390;2023-01-10T17:31:29;95871.63;;;4.19;77.59
46638;BME280;32365;46.938;7.390;2023-01-10T17:33:57;95869.75;;;4.27;77.72
46638;BME280;32365;46.938;7.390;2023-01-10T17:36:23;95874.34;;;4.17;77.98
46638;BME280;32365;46.938;7.390;2023-01-10T17:38:53;95868.53;;;4.23;78.80
46638;BME280;32365;46.938;7.390;2023-01-10T17:41:19;95865.53;;;4.20;78.86
46638;BME280;32365;46.938;7.390;2023-01-10T17:43:45;95870.03;;;4.18;79.47
46638;BME280;32365;46.938;7.390;2023-01-10T17:46:12;95862.16;;;4.04;80.19
46638;BME280;32365;46.938;7.390;2023-01-10T17:48:40;95874.44;;;4.09;80.56
46638;BME280;32365;46.938;7.390;2023-01-10T17:51:08;95870.50;;;3.98;79.92
46638;BME280;32365;46.938;7.390;2023-01-10T17:53:37;95867.72;;;4.08;80.00
46638;BME280;32365;46.938;7.390;2023-01-10T17:56:04;95874.34;;;4.17;79.24
46638;BME280;32365;46.938;7.390;2023-01-10T17:58:30;95876.28;;;4.15;78.59
46638;BME280;32365;46.938;7.390;2023-01-10T18:00:57;95869.50;;;4.22;79.22
46638;BME280;32365;46.938;7.390;2023-01-10T18:03:23;95875.06;;;4.26;79.02
46638;BME280;32365;46.938;7.390;2023-01-10T18:05:50;95875.06;;;4.26;79.12
46638;BME280;32365;46.938;7.390;2023-01-10T18:08:17;95874.28;;;4.25;79.36
46638;BME280;32365;46.938;7.390;2023-01-10T18:10:44;95873.75;;;4.30;79.30
46638;BME280;32365;46.938;7.390;2023-01-10T18:13:11;95871.34;;;4.28;79.48
46638;BME280;32365;46.938;7.390;2023-01-10T18:15:39;95874.09;;;4.12;80.34
46638;BME280;32365;46.938;7.390;2023-01-10T18:18:06;95874.63;;;4.07;80.70
46638;BME280;32365;46.938;7.390;2023-01-10T18:20:32;95878.59;;;4.10;79.65
46638;BME280;32365;46.938;7.390;2023-01-10T18:22:58;95875.22;;;4.09;79.38
46638;BME280;32365;46.938;7.390;2023-01-10T18:25:53;95874.84;;;3.97;80.35
46638;BME280;32365;46.938;7.390;2023-01-10T18:28:20;95884.50;;;4.10;79.99
46638;BME280;32365;46.938;7.390;2023-01-10T18:30:46;95886.28;;;4.10;79.31
46638;BME280;32365;46.938;7.390;2023-01-10T18:33:12;95873.88;;;3.98;79.91
46638;BME280;32365;46.938;7.390;2023-01-10T18:35:39;95880.53;;;4.08;80.48
46638;BME280;32365;46.938;7.390;2023-01-10T18:38:05;95875.16;;;4.03;80.82
46638;BME280;32365;46.938;7.390;2023-01-10T18:40:31;95877.22;;;3.84;81.83
46638;BME280;32365;46.938;7.390;2023-01-10T18:42:59;95880.72;;;3.83;81.96
46638;BME280;32365;46.938;7.390;2023-01-10T18:45:26;95882.16;;;3.85;81.73
46638;BME280;32365;46.938;7.390;2023-01-10T18:47:54;95882.34;;;3.61;82.58
46638;BME280;32365;46.938;7.390;2023-01-10T18:50:23;95878.03;;;3.61;82.49
46638;BME280;32365;46.938;7.390;2023-01-10T18:52:49;95877.78;;;3.71;80.85
46638;BME280;32365;46.938;7.390;2023-01-10T18:55:16;95873.78;;;3.68;81.21
46638;BME280;32365;46.938;7.390;2023-01-10T18:57:42;95871.22;;;3.92;78.91
46638;BME280;32365;46.938;7.390;2023-01-10T19:00:11;95873.91;;;3.75;79.68
46638;BME280;32365;46.938;7.390;2023-01-10T19:02:38;95870.44;;;3.68;80.73
46638;BME280;32365;46.938;7.390;2023-01-10T19:05:04;95869.94;;;3.73;80.78
46638;BME280;32365;46.938;7.390;2023-01-10T19:07:33;95859.97;;;3.78;80.35
46638;BME280;32365;46.938;7.390;2023-01-10T19:10:00;95853.81;;;3.64;80.73
46638;BME280;32365;46.938;7.390;2023-01-10T19:12:26;95852.63;;;3.51;81.70
46638;BME280;32365;46.938;7.390;2023-01-10T19:14:53;95851.22;;;3.49;81.20
46638;BME280;32365;46.938;7.390;2023-01-10T19:17:21;95853.44;;;3.52;81.34
46638;BME280;32365;46.938;7.390;2023-01-10T19:19:48;95860.72;;;3.63;79.72
46638;BME280;32365;46.938;7.390;2023-01-10T19:22:15;95857.66;;;3.68;79.51
46638;BME280;32365;46.938;7.390;2023-01-10T19:24:42;95849.75;;;3.54;80.37
46638;BME280;32365;46.938;7.390;2023-01-10T19:27:09;95852.22;;;3.63;80.10
46638;BME280;32365;46.938;7.390;2023-01-10T19:29:35;95856.91;;;3.59;79.98
46638;BME280;32365;46.938;7.390;2023-01-10T19:32:02;95861.19;;;3.67;79.44
46638;BME280;32365;46.938;7.390;2023-01-10T19:34:30;95857.09;;;3.58;80.40
46638;BME280;32365;46.938;7.390;2023-01-10T19:36:56;95849.78;;;3.69;81.46
46638;BME280;32365;46.938;7.390;2023-01-10T19:39:23;95854.06;;;3.54;80.74
46638;BME280;32365;46.938;7.390;2023-01-10T19:41:49;95844.66;;;3.69;79.96
46638;BME280;32365;46.938;7.390;2023-01-10T19:44:16;95848.19;;;3.68;80.12
46638;BME280;32365;46.938;7.390;2023-01-10T19:46:42;95847.59;;;3.66;80.70
46638;BME280;32365;46.938;7.390;2023-01-10T19:49:12;95843.03;;;3.77;80.35
46638;BME280;32365;46.938;7.390;2023-01-10T19:51:43;95853.50;;;3.67;80.91
46638;BME280;32365;46.938;7.390;2023-01-10T19:54:11;95851.91;;;3.66;81.05
46638;BME280;32365;46.938;7.390;2023-01-10T19:56:38;95856.34;;;3.72;80.59
46638;BME280;32365;46.938;7.390;2023-01-10T19:59:04;95852.88;;;3.65;81.34
46638;BME280;32365;46.938;7.390;2023-01-10T20:01:31;95849.22;;;3.59;81.68
46638;BME280;32365;46.938;7.390;2023-01-10T20:03:59;95849.94;;;3.53;81.47
46638;BME280;32365;46.938;7.390;2023-01-10T20:06:26;95853.19;;;3.62;80.57
46638;BME280;32365;46.938;7.390;2023-01-10T20:08:54;95851.63;;;3.61;80.83
46638;BME280;32365;46.938;7.390;2023-01-10T20:11:21;95850.03;;;3.60;80.75
46638;BME280;32365;46.938;7.390;2023-01-10T20:13:48;95850.53;;;3.55;82.06
46638;BME280;32365;46.938;7.390;2023-01-10T20:16:15;95850.78;;;3.45;82.63
46638;BME280;32365;46.938;7.390;2023-01-10T20:18:42;95857.03;;;3.43;84.17
46638;BME280;32365;46.938;7.390;2023-01-10T20:21:09;95854.53;;;3.58;83.28
46638;BME280;32365;46.938;7.390;2023-01-10T20:23:36;95854.41;;;3.51;84.17
46638;BME280;32365;46.938;7.390;2023-01-10T20:26:05;95849.44;;;3.49;84.68
46638;BME280;32365;46.938;7.390;2023-01-10T20:28:33;95843.25;;;3.44;84.35
46638;BME280;32365;46.938;7.390;2023-01-10T20:31:00;95845.66;;;3.45;84.90
46638;BME280;32365;46.938;7.390;2023-01-10T20:33:27;95843.25;;;3.44;85.50
46638;BME280;32365;46.938;7.390;2023-01-10T20:35:54;95836.72;;;3.41;84.02
46638;BME280;32365;46.938;7.390;2023-01-10T20:38:21;95833.00;;;3.44;83.72
46638;BME280;32365;46.938;7.390;2023-01-10T20:40:47;95839.78;;;3.36;84.39
